sensor_id;sensor_type;location;lat;lon;timestamp;temperature;humidity
10986;DHT22;5546;48.714;8.738;2023-03-14T00:04:04;13.00;99.40
10986;DHT22;5546;48.714;8.738;2023-03-14T00:07:10;13.10;99.60
10986;DHT22;5546;48.714;8.738;2023-03-14T00:09:37;13.10;99.30
10986;DHT22;5546;48.714;8.738;2023-03-14T00:12:06;12.80;99.70
10986;DHT22;5546;48.714;8.738;2023-03-14T00:19:34;13.10;98.90
10986;DHT22;5546;48.714;8.738;2023-03-14T00:29:37;13.10;99.20
10986;DHT22;5546;48.714;8.738;2023-03-14T00:32:04;13.00;98.90
10986;DHT22;5546;48.714;8.738;2023-03-14T00:34:30;12.70;99.20
10986;DHT22;5546;48.714;8.738;2023-03-14T00:36:59;12.80;99.70
10986;DHT22;5546;48.714;8.738;2023-03-14T00:46:45;13.20;99.00
10986;DHT22;5546;48.714;8.738;2023-03-14T00:56:29;13.20;98.90
10986;DHT22;5546;48.714;8.738;2023-03-14T01:01:22;12.80;99.90
10986;DHT22;5546;48.714;8.738;2023-03-14T01:03:55;13.10;99.40
10986;DHT22;5546;48.714;8.738;2023-03-14T01:06:33;13.00;99.50
10986;DHT22;5546;48.714;8.738;2023-03-14T01:08:59;13.10;99.20
10986;DHT22;5546;48.714;8.738;2023-03-14T01:11:33;13.10;99.10
10986;DHT22;5546;48.714;8.738;2023-03-14T01:13:59;13.30;99.10
10986;DHT22;5546;48.714;8.738;2023-03-14T01:16:31;13.30;99.00
10986;DHT22;5546;48.714;8.738;2023-03-14T01:21:35;13.20;99.00
10986;DHT22;5546;48.714;8.738;2023-03-14T01:27:51;12.80;99.20
10986;DHT22;5546;48.714;8.738;2023-03-14T01:30:25;12.70;99.70
10986;DHT22;5546;48.714;8.738;2023-03-14T01:32:54;12.30;99.90
10986;DHT22;5546;48.714;8.738;2023-03-14T01:35:20;12.40;99.90
10986;DHT22;5546;48.714;8.738;2023-03-14T01:37:45;12.80;99.50
10986;DHT22;5546;48.714;8.738;2023-03-14T01:40:11;12.80;99.30
10986;DHT22;5546;48.714;8.738;2023-03-14T01:42:45;12.60;99.60
10986;DHT22;5546;48.714;8.738;2023-03-14T01:48:14;12.80;99.30
10986;DHT22;5546;48.714;8.738;2023-03-14T01:50:39;12.70;99.00
10986;DHT22;5546;48.714;8.738;2023-03-14T01:53:05;12.60;99.60
10986;DHT22;5546;48.714;8.738;2023-03-14T01:58:03;12.70;99.30
10986;DHT22;5546;48.714;8.738;2023-03-14T02:00:29;12.80;99.20
10986;DHT22;5546;48.714;8.738;2023-03-14T02:02:58;12.90;99.20
10986;DHT22;5546;48.714;8.738;2023-03-14T02:05:28;13.00;98.90
10986;DHT22;5546;48.714;8.738;2023-03-14T02:07:58;13.20;98.60
10986;DHT22;5546;48.714;8.738;2023-03-14T02:10:27;12.80;99.10
10986;DHT22;5546;48.714;8.738;2023-03-14T02:12:55;12.80;98.90
10986;DHT22;5546;48.714;8.738;2023-03-14T02:15:22;12.90;98.90
10986;DHT22;5546;48.714;8.738;2023-03-14T02:20:42;12.70;99.00
10986;DHT22;5546;48.714;8.738;2023-03-14T02:23:10;12.80;98.70
10986;DHT22;5546;48.714;8.738;2023-03-14T02:26:03;12.60;98.80
10986;DHT22;5546;48.714;8.738;2023-03-14T02:28:31;12.30;99.20
10986;DHT22;5546;48.714;8.738;2023-03-14T02:33:23;12.00;99.50
10986;DHT22;5546;48.714;8.738;2023-03-14T02:36:00;12.10;99.70
10986;DHT22;5546;48.714;8.738;2023-03-14T02:43:45;12.40;98.50
10986;DHT22;5546;48.714;8.738;2023-03-14T02:46:13;12.40;98.60
10986;DHT22;5546;48.714;8.738;2023-03-14T02:48:43;11.90;98.80
10986;DHT22;5546;48.714;8.738;2023-03-14T02:53:38;11.70;99.40
10986;DHT22;5546;48.714;8.738;2023-03-14T02:56:05;12.00;99.30
10986;DHT22;5546;48.714;8.738;2023-03-14T03:00:57;12.20;98.70
10986;DHT22;5546;48.714;8.738;2023-03-14T03:05:50;12.40;98.10
10986;DHT22;5546;48.714;8.738;2023-03-14T03:08:16;11.90;98.10
10986;DHT22;5546;48.714;8.738;2023-03-14T03:10:42;11.90;98.50
10986;DHT22;5546;48.714;8.738;2023-03-14T03:15:33;11.50;99.10
10986;DHT22;5546;48.714;8.738;2023-03-14T03:25:17;11.80;97.80
10986;DHT22;5546;48.714;8.738;2023-03-14T03:30:09;11.80;97.70
10986;DHT22;5546;48.714;8.738;2023-03-14T03:35:02;11.70;97.70
10986;DHT22;5546;48.714;8.738;2023-03-14T03:37:30;11.70;97.00
10986;DHT22;5546;48.714;8.738;2023-03-14T03:42:21;11.40;97.20
10986;DHT22;5546;48.714;8.738;2023-03-14T03:44:47;11.60;96.80
10986;DHT22;5546;48.714;8.738;2023-03-14T03:47:13;11.70;96.40
10986;DHT22;5546;48.714;8.738;2023-03-14T04:09:08;11.80;96.00
10986;DHT22;5546;48.714;8.738;2023-03-14T04:11:34;12.00;96.20
10986;DHT22;5546;48.714;8.738;2023-03-14T04:16:26;11.70;95.50
10986;DHT22;5546;48.714;8.738;2023-03-14T04:21:18;11.50;96.00
10986;DHT22;5546;48.714;8.738;2023-03-14T04:23:44;11.60;95.40
10986;DHT22;5546;48.714;8.738;2023-03-14T04:26:09;11.80;95.50
10986;DHT22;5546;48.714;8.738;2023-03-14T04:28:35;12.00;95.10
10986;DHT22;5546;48.714;8.738;2023-03-14T04:31:28;11.90;95.30
10986;DHT22;5546;48.714;8.738;2023-03-14T04:43:37;11.60;95.60
10986;DHT22;5546;48.714;8.738;2023-03-14T04:46:03;11.60;95.50
10986;DHT22;5546;48.714;8.738;2023-03-14T04:48:29;11.20;96.00
10986;DHT22;5546;48.714;8.738;2023-03-14T04:50:55;11.30;96.10
10986;DHT22;5546;48.714;8.738;2023-03-14T04:55:54;11.40;95.70
10986;DHT22;5546;48.714;8.738;2023-03-14T04:58:20;11.30;95.70
10986;DHT22;5546;48.714;8.738;2023-03-14T05:00:46;10.90;95.40
10986;DHT22;5546;48.714;8.738;2023-03-14T05:03:13;11.60;95.50
10986;DHT22;5546;48.714;8.738;2023-03-14T05:05:39;11.70;95.10
10986;DHT22;5546;48.714;8.738;2023-03-14T05:22:41;11.80;94.70
10986;DHT22;5546;48.714;8.738;2023-03-14T05:25:07;11.30;95.30
10986;DHT22;5546;48.714;8.738;2023-03-14T05:27:34;11.30;95.60
10986;DHT22;5546;48.714;8.738;2023-03-14T05:34:51;12.00;94.40
10986;DHT22;5546;48.714;8.738;2023-03-14T05:37:17;11.70;94.80
10986;DHT22;5546;48.714;8.738;2023-03-14T05:56:44;11.70;94.80
10986;DHT22;5546;48.714;8.738;2023-03-14T06:01:35;11.80;94.60
10986;DHT22;5546;48.714;8.738;2023-03-14T06:08:53;12.10;94.90
10986;DHT22;5546;48.714;8.738;2023-03-14T06:11:19;11.90;95.10
10986;DHT22;5546;48.714;8.738;2023-03-14T06:18:37;11.90;95.10
10986;DHT22;5546;48.714;8.738;2023-03-14T06:45:24;15.40;87.60
10986;DHT22;5546;48.714;8.738;2023-03-14T06:50:16;15.50;85.40
10986;DHT22;5546;48.714;8.738;2023-03-14T06:55:13;16.90;83.60
10986;DHT22;5546;48.714;8.738;2023-03-14T06:57:39;16.70;81.70
10986;DHT22;5546;48.714;8.738;2023-03-14T07:14:40;17.60;81.30
10986;DHT22;5546;48.714;8.738;2023-03-14T07:17:06;18.70;79.10
10986;DHT22;5546;48.714;8.738;2023-03-14T07:19:31;20.00;74.30
10986;DHT22;5546;48.714;8.738;2023-03-14T07:21:57;20.20;72.40
10986;DHT22;5546;48.714;8.738;2023-03-14T07:26:48;19.70;72.70
10986;DHT22;5546;48.714;8.738;2023-03-14T07:29:14;19.90;70.50
10986;DHT22;5546;48.714;8.738;2023-03-14T07:31:39;18.60;75.50
10986;DHT22;5546;48.714;8.738;2023-03-14T07:34:05;18.60;74.80
10986;DHT22;5546;48.714;8.738;2023-03-14T07:36:30;18.80;74.70
10986;DHT22;5546;48.714;8.738;2023-03-14T07:38:56;19.00;72.30
10986;DHT22;5546;48.714;8.738;2023-03-14T07:43:48;18.60;72.80
10986;DHT22;5546;48.714;8.738;2023-03-14T07:46:14;18.20;74.30
10986;DHT22;5546;48.714;8.738;2023-03-14T07:48:40;17.60;77.00
10986;DHT22;5546;48.714;8.738;2023-03-14T07:51:06;17.30;77.10
10986;DHT22;5546;48.714;8.738;2023-03-14T07:53:31;17.40;77.50
10986;DHT22;5546;48.714;8.738;2023-03-14T07:55:57;17.40;76.50
10986;DHT22;5546;48.714;8.738;2023-03-14T08:00:49;15.90;81.10
10986;DHT22;5546;48.714;8.738;2023-03-14T08:03:15;15.90;81.60
10986;DHT22;5546;48.714;8.738;2023-03-14T08:08:08;14.50;86.20
10986;DHT22;5546;48.714;8.738;2023-03-14T08:13:00;14.70;85.80
10986;DHT22;5546;48.714;8.738;2023-03-14T08:15:27;15.00;86.30
10986;DHT22;5546;48.714;8.738;2023-03-14T08:20:25;14.90;84.10
10986;DHT22;5546;48.714;8.738;2023-03-14T08:22:52;15.10;83.80
10986;DHT22;5546;48.714;8.738;2023-03-14T08:27:44;14.70;84.50
10986;DHT22;5546;48.714;8.738;2023-03-14T08:30:11;14.60;85.00
10986;DHT22;5546;48.714;8.738;2023-03-14T08:32:37;14.60;87.20
10986;DHT22;5546;48.714;8.738;2023-03-14T08:35:04;14.90;86.80
10986;DHT22;5546;48.714;8.738;2023-03-14T08:37:34;14.70;84.80
10986;DHT22;5546;48.714;8.738;2023-03-14T08:40:00;14.40;86.90
10986;DHT22;5546;48.714;8.738;2023-03-14T08:44:52;14.00;88.30
10986;DHT22;5546;48.714;8.738;2023-03-14T08:47:18;14.10;88.50
10986;DHT22;5546;48.714;8.738;2023-03-14T08:49:43;14.10;89.40
10986;DHT22;5546;48.714;8.738;2023-03-14T08:54:35;15.00;86.30
10986;DHT22;5546;48.714;8.738;2023-03-14T09:11:39;15.00;86.90
10986;DHT22;5546;48.714;8.738;2023-03-14T09:21:25;14.50;90.30
10986;DHT22;5546;48.714;8.738;2023-03-14T09:23:51;13.80;90.90
10986;DHT22;5546;48.714;8.738;2023-03-14T09:31:10;13.80;92.00
10986;DHT22;5546;48.714;8.738;2023-03-14T09:33:36;14.00;91.80
10986;DHT22;5546;48.714;8.738;2023-03-14T09:36:03;14.30;90.90
10986;DHT22;5546;48.714;8.738;2023-03-14T09:40:55;15.00;90.30
10986;DHT22;5546;48.714;8.738;2023-03-14T09:43:22;14.40;90.90
10986;DHT22;5546;48.714;8.738;2023-03-14T09:45:50;14.70;90.60
10986;DHT22;5546;48.714;8.738;2023-03-14T09:48:26;15.10;90.00
10986;DHT22;5546;48.714;8.738;2023-03-14T09:50:54;15.70;89.30
10986;DHT22;5546;48.714;8.738;2023-03-14T09:53:24;16.70;85.90
10986;DHT22;5546;48.714;8.738;2023-03-14T09:55:51;17.60;83.10
10986;DHT22;5546;48.714;8.738;2023-03-14T09:58:21;17.60;79.80
10986;DHT22;5546;48.714;8.738;2023-03-14T10:00:49;17.20;80.10
10986;DHT22;5546;48.714;8.738;2023-03-14T10:03:45;16.40;83.50
10986;DHT22;5546;48.714;8.738;2023-03-14T10:06:12;16.20;83.80
10986;DHT22;5546;48.714;8.738;2023-03-14T10:08:43;15.90;86.20
10986;DHT22;5546;48.714;8.738;2023-03-14T10:11:17;15.40;86.30
10986;DHT22;5546;48.714;8.738;2023-03-14T10:14:10;15.40;87.20
10986;DHT22;5546;48.714;8.738;2023-03-14T10:16:42;15.40;86.60
10986;DHT22;5546;48.714;8.738;2023-03-14T10:19:13;15.60;86.60
10986;DHT22;5546;48.714;8.738;2023-03-14T10:21:43;15.20;88.00
10986;DHT22;5546;48.714;8.738;2023-03-14T10:24:21;15.50;89.30
10986;DHT22;5546;48.714;8.738;2023-03-14T10:26:53;16.10;86.60
10986;DHT22;5546;48.714;8.738;2023-03-14T10:29:19;16.10;86.00
10986;DHT22;5546;48.714;8.738;2023-03-14T10:34:16;15.60;87.20
10986;DHT22;5546;48.714;8.738;2023-03-14T10:41:48;15.10;90.00
10986;DHT22;5546;48.714;8.738;2023-03-14T10:44:16;15.20;90.10
10986;DHT22;5546;48.714;8.738;2023-03-14T10:49:25;14.60;91.90
10986;DHT22;5546;48.714;8.738;2023-03-14T10:51:51;14.00;91.40
10986;DHT22;5546;48.714;8.738;2023-03-14T10:54:22;14.10;92.60
10986;DHT22;5546;48.714;8.738;2023-03-14T10:57:01;13.80;92.90
10986;DHT22;5546;48.714;8.738;2023-03-14T10:59:35;14.00;92.70
10986;DHT22;5546;48.714;8.738;2023-03-14T11:02:14;13.90;93.20
10986;DHT22;5546;48.714;8.738;2023-03-14T11:05:03;13.90;93.10
10986;DHT22;5546;48.714;8.738;2023-03-14T11:07:38;13.40;93.60
10986;DHT22;5546;48.714;8.738;2023-03-14T11:16:09;13.60;93.70
10986;DHT22;5546;48.714;8.738;2023-03-14T11:27:10;13.50;94.80
10986;DHT22;5546;48.714;8.738;2023-03-14T11:29:45;13.20;95.10
10986;DHT22;5546;48.714;8.738;2023-03-14T11:32:36;13.00;95.20
10986;DHT22;5546;48.714;8.738;2023-03-14T11:35:11;12.90;95.50
10986;DHT22;5546;48.714;8.738;2023-03-14T11:37:51;13.00;96.20
10986;DHT22;5546;48.714;8.738;2023-03-14T11:40:20;12.70;96.10
10986;DHT22;5546;48.714;8.738;2023-03-14T11:42:54;12.80;96.70
10986;DHT22;5546;48.714;8.738;2023-03-14T11:45:25;12.60;96.80
10986;DHT22;5546;48.714;8.738;2023-03-14T11:50:44;12.50;97.30
10986;DHT22;5546;48.714;8.738;2023-03-14T11:53:19;12.60;97.00
10986;DHT22;5546;48.714;8.738;2023-03-14T11:58:29;12.90;96.00
10986;DHT22;5546;48.714;8.738;2023-03-14T12:00:57;12.90;94.20
10986;DHT22;5546;48.714;8.738;2023-03-14T12:03:35;13.10;93.40
10986;DHT22;5546;48.714;8.738;2023-03-14T12:08:49;14.00;92.40
10986;DHT22;5546;48.714;8.738;2023-03-14T12:11:41;14.20;90.80
10986;DHT22;5546;48.714;8.738;2023-03-14T12:14:25;13.80;89.40
10986;DHT22;5546;48.714;8.738;2023-03-14T12:17:41;14.10;90.00
10986;DHT22;5546;48.714;8.738;2023-03-14T12:22:27;17.20;79.40
10986;DHT22;5546;48.714;8.738;2023-03-14T12:25:04;17.20;80.50
10986;DHT22;5546;48.714;8.738;2023-03-14T12:27:44;18.00;76.00
10986;DHT22;5546;48.714;8.738;2023-03-14T12:30:34;18.60;70.10
10986;DHT22;5546;48.714;8.738;2023-03-14T12:35:52;17.20;70.90
10986;DHT22;5546;48.714;8.738;2023-03-14T12:38:42;17.50;68.90
10986;DHT22;5546;48.714;8.738;2023-03-14T12:41:41;17.40;69.70
10986;DHT22;5546;48.714;8.738;2023-03-14T12:44:37;16.80;68.90
10986;DHT22;5546;48.714;8.738;2023-03-14T12:49:45;15.50;70.10
10986;DHT22;5546;48.714;8.738;2023-03-14T12:52:16;14.50;70.40
10986;DHT22;5546;48.714;8.738;2023-03-14T12:55:23;14.70;71.20
10986;DHT22;5546;48.714;8.738;2023-03-14T12:58:15;15.40;69.60
10986;DHT22;5546;48.714;8.738;2023-03-14T13:00:40;16.50;66.00
10986;DHT22;5546;48.714;8.738;2023-03-14T13:15:39;13.20;70.10
10986;DHT22;5546;48.714;8.738;2023-03-14T13:18:14;12.40;72.30
10986;DHT22;5546;48.714;8.738;2023-03-14T13:21:07;12.20;73.60
10986;DHT22;5546;48.714;8.738;2023-03-14T13:23:39;11.60;73.50
10986;DHT22;5546;48.714;8.738;2023-03-14T13:26:14;11.20;74.00
10986;DHT22;5546;48.714;8.738;2023-03-14T13:28:41;11.30;75.90
10986;DHT22;5546;48.714;8.738;2023-03-14T13:31:25;11.90;74.30
10986;DHT22;5546;48.714;8.738;2023-03-14T13:34:17;12.60;72.30
10986;DHT22;5546;48.714;8.738;2023-03-14T13:39:27;13.30;69.60
10986;DHT22;5546;48.714;8.738;2023-03-14T13:41:58;12.80;66.10
10986;DHT22;5546;48.714;8.738;2023-03-14T13:44:49;12.20;64.10
10986;DHT22;5546;48.714;8.738;2023-03-14T13:53:27;12.00;66.40
10986;DHT22;5546;48.714;8.738;2023-03-14T13:55:53;12.40;67.20
10986;DHT22;5546;48.714;8.738;2023-03-14T13:58:28;12.80;64.40
10986;DHT22;5546;48.714;8.738;2023-03-14T14:01:26;12.40;64.30
10986;DHT22;5546;48.714;8.738;2023-03-14T14:03:55;12.80;63.10
10986;DHT22;5546;48.714;8.738;2023-03-14T14:06:43;13.30;62.40
10986;DHT22;5546;48.714;8.738;2023-03-14T14:09:39;13.20;61.60
10986;DHT22;5546;48.714;8.738;2023-03-14T14:12:14;12.70;63.40
10986;DHT22;5546;48.714;8.738;2023-03-14T14:15:06;12.60;62.90
10986;DHT22;5546;48.714;8.738;2023-03-14T14:18:19;12.40;63.60
10986;DHT22;5546;48.714;8.738;2023-03-14T14:20:49;11.90;64.60
10986;DHT22;5546;48.714;8.738;2023-03-14T14:23:27;11.80;65.40
10986;DHT22;5546;48.714;8.738;2023-03-14T14:26:04;11.90;66.70
10986;DHT22;5546;48.714;8.738;2023-03-14T14:28:57;11.60;65.10
10986;DHT22;5546;48.714;8.738;2023-03-14T14:31:44;12.30;65.40
10986;DHT22;5546;48.714;8.738;2023-03-14T14:34:22;11.90;64.70
10986;DHT22;5546;48.714;8.738;2023-03-14T14:37:18;11.90;64.10
10986;DHT22;5546;48.714;8.738;2023-03-14T14:43:05;11.80;63.70
10986;DHT22;5546;48.714;8.738;2023-03-14T14:48:50;12.00;64.60
10986;DHT22;5546;48.714;8.738;2023-03-14T14:51:26;11.80;64.20
10986;DHT22;5546;48.714;8.738;2023-03-14T14:54:31;11.90;64.50
10986;DHT22;5546;48.714;8.738;2023-03-14T14:57:20;12.20;64.70
10986;DHT22;5546;48.714;8.738;2023-03-14T14:59:59;13.00;64.00
10986;DHT22;5546;48.714;8.738;2023-03-14T15:02:40;13.10;62.10
10986;DHT22;5546;48.714;8.738;2023-03-14T15:08:17;12.30;65.00
10986;DHT22;5546;48.714;8.738;2023-03-14T15:13:21;11.90;66.00
10986;DHT22;5546;48.714;8.738;2023-03-14T15:15:53;12.30;64.10
10986;DHT22;5546;48.714;8.738;2023-03-14T15:18:23;12.40;63.50
10986;DHT22;5546;48.714;8.738;2023-03-14T15:23:22;11.90;66.30
10986;DHT22;5546;48.714;8.738;2023-03-14T15:25:52;12.40;64.40
10986;DHT22;5546;48.714;8.738;2023-03-14T15:28:38;12.10;65.00
10986;DHT22;5546;48.714;8.738;2023-03-14T15:31:39;12.00;66.10
10986;DHT22;5546;48.714;8.738;2023-03-14T15:36:51;12.00;65.30
10986;DHT22;5546;48.714;8.738;2023-03-14T15:39:19;12.20;66.00
10986;DHT22;5546;48.714;8.738;2023-03-14T15:41:48;12.30;66.10
10986;DHT22;5546;48.714;8.738;2023-03-14T15:44:19;12.40;66.00
10986;DHT22;5546;48.714;8.738;2023-03-14T15:47:08;12.40;64.90
10986;DHT22;5546;48.714;8.738;2023-03-14T15:50:10;12.80;64.50
10986;DHT22;5546;48.714;8.738;2023-03-14T15:53:15;12.80;64.50
10986;DHT22;5546;48.714;8.738;2023-03-14T15:55:55;12.60;64.70
10986;DHT22;5546;48.714;8.738;2023-03-14T15:58:21;12.50;64.90
10986;DHT22;5546;48.714;8.738;2023-03-14T16:00:56;12.40;65.60
10986;DHT22;5546;48.714;8.738;2023-03-14T16:03:31;12.20;66.70
10986;DHT22;5546;48.714;8.738;2023-03-14T16:06:22;12.50;64.60
10986;DHT22;5546;48.714;8.738;2023-03-14T16:09:59;12.40;65.60
10986;DHT22;5546;48.714;8.738;2023-03-14T16:12:48;12.50;64.30
10986;DHT22;5546;48.714;8.738;2023-03-14T16:15:19;12.40;68.60
10986;DHT22;5546;48.714;8.738;2023-03-14T16:21:11;11.80;68.20
10986;DHT22;5546;48.714;8.738;2023-03-14T16:24:18;12.00;66.00
10986;DHT22;5546;48.714;8.738;2023-03-14T16:27:29;11.80;66.60
10986;DHT22;5546;48.714;8.738;2023-03-14T16:29:56;12.10;66.40
10986;DHT22;5546;48.714;8.738;2023-03-14T16:33:15;12.60;72.50
10986;DHT22;5546;48.714;8.738;2023-03-14T16:36:19;12.70;67.70
10986;DHT22;5546;48.714;8.738;2023-03-14T16:42:08;11.70;68.00
10986;DHT22;5546;48.714;8.738;2023-03-14T16:47:31;11.50;69.20
10986;DHT22;5546;48.714;8.738;2023-03-14T16:49:56;11.70;69.50
10986;DHT22;5546;48.714;8.738;2023-03-14T16:59:21;12.00;69.40
10986;DHT22;5546;48.714;8.738;2023-03-14T17:02:47;12.20;71.80
10986;DHT22;5546;48.714;8.738;2023-03-14T17:06:13;11.10;74.40
10986;DHT22;5546;48.714;8.738;2023-03-14T17:09:19;10.70;76.80
10986;DHT22;5546;48.714;8.738;2023-03-14T17:12:22;11.20;76.60
10986;DHT22;5546;48.714;8.738;2023-03-14T17:15:17;11.10;76.70
10986;DHT22;5546;48.714;8.738;2023-03-14T17:18:45;11.20;76.80
10986;DHT22;5546;48.714;8.738;2023-03-14T17:21:45;11.10;77.70
10986;DHT22;5546;48.714;8.738;2023-03-14T17:24:46;11.10;78.00
10986;DHT22;5546;48.714;8.738;2023-03-14T17:27:58;11.40;76.90
10986;DHT22;5546;48.714;8.738;2023-03-14T17:33:46;11.20;77.70
10986;DHT22;5546;48.714;8.738;2023-03-14T17:43:04;10.90;81.90
10986;DHT22;5546;48.714;8.738;2023-03-14T17:49:07;10.20;83.50
10986;DHT22;5546;48.714;8.738;2023-03-14T17:52:01;9.70;86.70
10986;DHT22;5546;48.714;8.738;2023-03-14T17:54:59;8.70;91.30
10986;DHT22;5546;48.714;8.738;2023-03-14T17:57:35;8.80;91.50
10986;DHT22;5546;48.714;8.738;2023-03-14T18:00:25;9.10;91.40
10986;DHT22;5546;48.714;8.738;2023-03-14T18:03:02;9.00;89.70
10986;DHT22;5546;48.714;8.738;2023-03-14T18:05:31;8.60;90.60
10986;DHT22;5546;48.714;8.738;2023-03-14T18:07:57;8.60;90.60
10986;DHT22;5546;48.714;8.738;2023-03-14T18:10:28;8.60;90.80
10986;DHT22;5546;48.714;8.738;2023-03-14T18:18:02;9.00;92.10
10986;DHT22;5546;48.714;8.738;2023-03-14T18:20:28;9.00;92.00
10986;DHT22;5546;48.714;8.738;2023-03-14T18:23:00;8.70;92.20
10986;DHT22;5546;48.714;8.738;2023-03-14T18:25:29;8.20;92.30
10986;DHT22;5546;48.714;8.738;2023-03-14T18:41:45;7.90;93.80
10986;DHT22;5546;48.714;8.738;2023-03-14T18:51:21;8.20;93.60
10986;DHT22;5546;48.714;8.738;2023-03-14T18:58:03;8.30;93.50
10986;DHT22;5546;48.714;8.738;2023-03-14T19:00:23;8.50;93.00
10986;DHT22;5546;48.714;8.738;2023-03-14T19:03:21;8.60;92.90
10986;DHT22;5546;48.714;8.738;2023-03-14T19:06:23;8.20;93.50
10986;DHT22;5546;48.714;8.738;2023-03-14T19:12:40;8.70;92.90
10986;DHT22;5546;48.714;8.738;2023-03-14T19:19:30;8.30;93.10
10986;DHT22;5546;48.714;8.738;2023-03-14T19:22:34;8.20;93.00
10986;DHT22;5546;48.714;8.738;2023-03-14T19:28:12;8.30;93.10
10986;DHT22;5546;48.714;8.738;2023-03-14T19:31:11;8.30;93.50
10986;DHT22;5546;48.714;8.738;2023-03-14T19:33:58;8.20;93.30
10986;DHT22;5546;48.714;8.738;2023-03-14T19:37:02;7.90;93.60
10986;DHT22;5546;48.714;8.738;2023-03-14T19:39:43;7.80;92.80
10986;DHT22;5546;48.714;8.738;2023-03-14T19:42:38;7.80;93.80
10986;DHT22;5546;48.714;8.738;2023-03-14T19:45:13;8.10;91.30
10986;DHT22;5546;48.714;8.738;2023-03-14T19:48:19;8.10;92.90
10986;DHT22;5546;48.714;8.738;2023-03-14T19:51:32;8.20;91.60
10986;DHT22;5546;48.714;8.738;2023-03-14T19:54:07;8.30;92.10
10986;DHT22;5546;48.714;8.738;2023-03-14T19:56:43;8.20;92.80
10986;DHT22;5546;48.714;8.738;2023-03-14T19:59:35;8.20;92.80
10986;DHT22;5546;48.714;8.738;2023-03-14T20:12:24;8.40;92.50
10986;DHT22;5546;48.714;8.738;2023-03-14T20:14:58;8.30;92.80
10986;DHT22;5546;48.714;8.738;2023-03-14T20:20:04;8.50;92.80
10986;DHT22;5546;48.714;8.738;2023-03-14T20:22:39;8.70;92.10
10986;DHT22;5546;48.714;8.738;2023-03-14T20:25:35;8.60;91.30
10986;DHT22;5546;48.714;8.738;2023-03-14T20:28:25;8.90;91.30
10986;DHT22;5546;48.714;8.738;2023-03-14T20:30:51;8.90;91.50
10986;DHT22;5546;48.714;8.738;2023-03-14T20:33:23;8.70;92.60
10986;DHT22;5546;48.714;8.738;2023-03-14T20:35:57;8.60;91.70
10986;DHT22;5546;48.714;8.738;2023-03-14T20:39:33;8.50;91.70
10986;DHT22;5546;48.714;8.738;2023-03-14T20:41:46;8.50;91.50
10986;DHT22;5546;48.714;8.738;2023-03-14T20:46:42;8.10;92.40
10986;DHT22;5546;48.714;8.738;2023-03-14T20:49:21;7.90;93.00
10986;DHT22;5546;48.714;8.738;2023-03-14T20:52:36;7.80;92.80
10986;DHT22;5546;48.714;8.738;2023-03-14T20:55:06;7.50;93.70
10986;DHT22;5546;48.714;8.738;2023-03-14T20:57:32;7.80;94.00
10986;DHT22;5546;48.714;8.738;2023-03-14T21:00:07;7.60;93.40
10986;DHT22;5546;48.714;8.738;2023-03-14T21:05:04;7.90;93.60
10986;DHT22;5546;48.714;8.738;2023-03-14T21:07:40;8.30;93.50
10986;DHT22;5546;48.714;8.738;2023-03-14T21:10:10;8.10;93.20
10986;DHT22;5546;48.714;8.738;2023-03-14T21:15:05;8.00;93.60
10986;DHT22;5546;48.714;8.738;2023-03-14T21:17:34;7.70;94.00
10986;DHT22;5546;48.714;8.738;2023-03-14T21:22:26;7.30;94.80
10986;DHT22;5546;48.714;8.738;2023-03-14T21:24:56;7.30;94.80
10986;DHT22;5546;48.714;8.738;2023-03-14T21:27:37;7.80;94.50
10986;DHT22;5546;48.714;8.738;2023-03-14T21:30:10;8.10;93.80
10986;DHT22;5546;48.714;8.738;2023-03-14T21:32:55;8.40;94.10
10986;DHT22;5546;48.714;8.738;2023-03-14T21:40:16;8.40;94.00
10986;DHT22;5546;48.714;8.738;2023-03-14T21:43:03;8.20;93.50
10986;DHT22;5546;48.714;8.738;2023-03-14T21:45:31;8.40;93.60
10986;DHT22;5546;48.714;8.738;2023-03-14T21:48:17;8.10;93.70
10986;DHT22;5546;48.714;8.738;2023-03-14T21:51:22;8.20;93.40
10986;DHT22;5546;48.714;8.738;2023-03-14T21:56:58;8.10;93.90
10986;DHT22;5546;48.714;8.738;2023-03-14T21:59:45;8.30;93.70
10986;DHT22;5546;48.714;8.738;2023-03-14T22:02:14;8.40;93.30
10986;DHT22;5546;48.714;8.738;2023-03-14T22:04:40;8.30;93.10
10986;DHT22;5546;48.714;8.738;2023-03-14T22:10:28;8.60;92.90
10986;DHT22;5546;48.714;8.738;2023-03-14T22:13:02;8.50;93.10
10986;DHT22;5546;48.714;8.738;2023-03-14T22:17:59;6.40;93.40
10986;DHT22;5546;48.714;8.738;2023-03-14T22:20:25;5.00;94.30
10986;DHT22;5546;48.714;8.738;2023-03-14T22:25:55;4.50;96.50
10986;DHT22;5546;48.714;8.738;2023-03-14T22:39:17;5.20;96.10
10986;DHT22;5546;48.714;8.738;2023-03-14T22:56:09;4.90;95.50
10986;DHT22;5546;48.714;8.738;2023-03-14T22:59:14;4.90;95.70
10986;DHT22;5546;48.714;8.738;2023-03-14T23:05:55;4.90;94.50
10986;DHT22;5546;48.714;8.738;2023-03-14T23:09:19;4.70;95.30
10986;DHT22;5546;48.714;8.738;2023-03-14T23:14:52;5.50;95.10
10986;DHT22;5546;48.714;8.738;2023-03-14T23:17:49;5.70;94.40
10986;DHT22;5546;48.714;8.738;2023-03-14T23:32:44;5.90;94.00
10986;DHT22;5546;48.714;8.738;2023-03-14T23:37:50;6.00;93.50
10986;DHT22;5546;48.714;8.738;2023-03-14T23:40:16;6.00;93.30
10986;DHT22;5546;48.714;8.738;2023-03-14T23:42:46;5.90;93.00
10986;DHT22;5546;48.714;8.738;2023-03-14T23:45:21;5.70;93.50
10986;DHT22;5546;48.714;8.738;2023-03-14T23:50:45;5.30;93.30
10986;DHT22;5546;48.714;8.738;2023-03-14T23:53:30;4.80;93.80
10986;DHT22;5546;48.714;8.738;2023-03-14T23:56:11;5.10;93.50
10986;DHT22;5546;48.714;8.738;2023-03-14T23:59:13;5.10;93.20
